Time;durP1;ratioP1;P1;durP2;ratioP2;P2;SDS_P1;SDS_P2;PMS_P1;PMS_P2;Temp;Humidity;BMP_temperature;BMP_pressure;BME280_temperature;BME280_humidity;BME280_pressure;Samples;Min_cycle;Max_cycle;Signal;HPM_P1;HPM_P2
2022/09/02 00:05:59;;;;;;;2.20;0.50;;;16.40;99.90;;;;;;12338301;28;20070;-80
2022/09/02 00:12:00;;;;;;;3.70;0.47;;;16.30;99.90;;;;;;12323062;28;20518;-80
2022/09/02 00:18:03;;;;;;;3.50;0.57;;;16.30;99.90;;;;;;12346733;28;20047;-80
2022/09/02 00:24:09;;;;;;;2.13;0.50;;;16.20;99.90;;;;;;12334749;28;20055;-81
2022/09/02 00:30:11;;;;;;;2.20;0.50;;;16.20;99.90;;;;;;12338666;28;20105;-80
2022/09/02 00:36:13;;;;;;;1.13;0.40;;;16.20;99.90;;;;;;12333283;28;20254;-80
2022/09/02 00:42:15;;;;;;;1.10;0.50;;;16.20;99.90;;;;;;12348114;28;20149;-79
2022/09/02 00:48:17;;;;;;;0.85;0.40;;;16.20;99.90;;;;;;12335539;28;20046;-80
2022/09/02 00:54:21;;;;;;;0.95;0.40;;;16.30;99.90;;;;;;12337807;28;20074;-80
2022/09/02 01:00:26;;;;;;;1.38;0.35;;;16.00;99.90;;;;;;12322358;28;21288;-79
2022/09/02 01:06:35;;;;;;;4.25;0.50;;;16.20;99.90;;;;;;12336620;28;20046;-79
2022/09/02 01:12:37;;;;;;;2.33;0.65;;;16.30;99.90;;;;;;12339370;28;20038;-80
2022/09/02 01:18:43;;;;;;;4.05;0.60;;;16.20;99.90;;;;;;12339981;28;20562;-79
2022/09/02 01:24:45;;;;;;;2.85;0.75;;;15.90;99.90;;;;;;12322539;28;21606;-79
2022/09/02 01:30:51;;;;;;;1.27;0.50;;;15.80;99.90;;;;;;12358418;28;20093;-79
2022/09/02 01:36:53;;;;;;;3.17;0.50;;;15.60;99.90;;;;;;12342452;28;20141;-79
2022/09/02 01:43:00;;;;;;;1.67;0.80;;;15.50;99.90;;;;;;12339683;28;20126;-80
2022/09/02 01:49:02;;;;;;;1.55;0.55;;;15.60;99.90;;;;;;12337172;28;20055;-80
2022/09/02 01:55:05;;;;;;;2.55;0.60;;;15.50;99.90;;;;;;12337685;28;20133;-80
2022/09/02 02:01:07;;;;;;;2.65;0.50;;;15.30;99.90;;;;;;12337432;28;20477;-80
2022/09/02 02:07:09;;;;;;;3.20;0.43;;;15.60;99.90;;;;;;12331959;28;20050;-80
2022/09/02 02:13:12;;;;;;;0.82;0.47;;;15.70;99.90;;;;;;12342582;28;20043;-79
2022/09/02 02:19:14;;;;;;;1.23;0.50;;;15.70;99.90;;;;;;12341124;28;20051;-80
2022/09/02 02:25:17;;;;;;;3.08;0.60;;;15.60;99.90;;;;;;12339716;28;20129;-80
2022/09/02 02:31:19;;;;;;;1.00;0.38;;;15.50;99.90;;;;;;12339142;28;20085;-79
2022/09/02 02:37:21;;;;;;;4.00;0.60;;;15.40;99.90;;;;;;12338002;28;20055;-80
2022/09/02 02:43:26;;;;;;;0.90;0.38;;;15.20;99.90;;;;;;12323255;28;20042;-79
2022/09/02 02:49:28;;;;;;;1.58;0.57;;;15.10;99.90;;;;;;12332383;28;20046;-79
2022/09/02 02:55:30;;;;;;;2.50;0.80;;;15.00;99.90;;;;;;12332685;28;20185;-80
2022/09/02 03:01:32;;;;;;;2.65;0.45;;;14.90;99.90;;;;;;12340813;28;20510;-80
2022/09/02 03:07:37;;;;;;;2.30;0.50;;;15.20;99.90;;;;;;12330695;28;20058;-80
2022/09/02 03:13:39;;;;;;;1.80;0.55;;;15.00;99.90;;;;;;12336137;28;20125;-79
2022/09/02 03:19:41;;;;;;;1.35;0.40;;;14.90;99.90;;;;;;12319724;28;20050;-81
2022/09/02 03:25:44;;;;;;;3.50;0.52;;;14.90;99.90;;;;;;12334953;28;20046;-80
2022/09/02 03:31:46;;;;;;;1.45;0.50;;;14.80;99.90;;;;;;12340261;28;20047;-79
2022/09/02 03:37:49;;;;;;;1.52;0.68;;;14.70;99.90;;;;;;12324923;28;20059;-80
2022/09/02 03:43:51;;;;;;;2.75;0.70;;;14.70;99.90;;;;;;12324421;28;20100;-79
2022/09/02 03:49:54;;;;;;;1.20;0.60;;;14.70;99.90;;;;;;12332263;28;20090;-80
2022/09/02 03:55:56;;;;;;;3.97;0.70;;;14.80;99.90;;;;;;12322646;28;20502;-79
2022/09/02 04:01:59;;;;;;;1.27;0.70;;;14.80;99.90;;;;;;12329686;28;20079;-80
2022/09/02 04:08:01;;;;;;;1.30;0.60;;;14.90;99.90;;;;;;12339884;28;20346;-80
2022/09/02 04:14:03;;;;;;;0.80;0.45;;;15.00;99.90;;;;;;12339279;28;20125;-81
2022/09/02 04:20:07;;;;;;;2.28;0.60;;;15.00;99.90;;;;;;12318905;28;20105;-80
2022/09/02 04:26:14;;;;;;;1.75;0.57;;;15.00;99.90;;;;;;12335325;28;20062;-79
2022/09/02 04:32:15;;;;;;;1.92;0.68;;;14.90;99.90;;;;;;12339455;28;20042;-79
2022/09/02 04:38:17;;;;;;;3.97;0.82;;;14.70;99.90;;;;;;12329557;28;20137;-79
2022/09/02 04:44:19;;;;;;;2.15;0.60;;;14.70;99.90;;;;;;12347016;28;20046;-79
2022/09/02 04:50:21;;;;;;;2.95;0.60;;;14.50;99.90;;;;;;12342655;28;20054;-79
2022/09/02 04:56:26;;;;;;;1.63;0.60;;;14.50;99.90;;;;;;12344582;28;20101;-80
2022/09/02 05:02:27;;;;;;;2.67;0.80;;;14.40;99.90;;;;;;12322338;28;20044;-80
2022/09/02 05:08:30;;;;;;;1.27;0.60;;;14.30;99.90;;;;;;12323874;28;20054;-80
2022/09/02 05:14:31;;;;;;;1.95;0.60;;;14.30;99.90;;;;;;12316334;28;20045;-79
2022/09/02 05:20:33;;;;;;;0.68;0.45;;;14.30;99.90;;;;;;12327572;28;20051;-79
2022/09/02 05:26:36;;;;;;;2.47;0.82;;;14.30;99.90;;;;;;12339863;28;20047;-80
2022/09/02 05:32:37;;;;;;;2.83;0.85;;;14.40;99.90;;;;;;12344206;28;20097;-79
2022/09/02 05:38:40;;;;;;;5.75;0.60;;;14.50;99.90;;;;;;12338719;28;20116;-79
2022/09/02 05:44:43;;;;;;;2.03;0.80;;;14.50;99.90;;;;;;12327896;28;20058;-79
2022/09/02 05:50:45;;;;;;;4.47;0.70;;;14.70;99.90;;;;;;12329776;28;20058;-80
2022/09/02 05:56:53;;;;;;;2.90;0.90;;;14.90;99.90;;;;;;12342291;28;20047;-79
2022/09/02 06:02:55;;;;;;;4.05;0.73;;;15.20;99.90;;;;;;12346544;28;20490;-80
2022/09/02 06:08:59;;;;;;;1.35;0.55;;;15.00;99.90;;;;;;12321777;28;20396;-79
2022/09/02 06:15:01;;;;;;;1.90;0.90;;;15.00;99.90;;;;;;12341187;28;20197;-79
2022/09/02 06:21:04;;;;;;;7.03;0.95;;;15.10;99.90;;;;;;12324342;28;20046;-80
2022/09/02 06:27:06;;;;;;;4.63;0.90;;;15.30;99.90;;;;;;12325592;28;20461;-79
2022/09/02 06:33:09;;;;;;;1.38;0.80;;;15.50;99.90;;;;;;12335789;28;20042;-80
2022/09/02 06:39:13;;;;;;;2.05;0.70;;;15.70;99.90;;;;;;12342615;28;20086;-80
2022/09/02 06:45:15;;;;;;;2.83;0.80;;;16.00;99.90;;;;;;12337773;28;20158;-80
2022/09/02 06:51:41;;;;;;;5.47;1.58;;;16.10;99.90;;;;;;12341968;28;20047;-80
2022/09/02 06:57:43;;;;;;;2.92;1.30;;;16.30;99.90;;;;;;12338730;28;20187;-79
2022/09/02 07:10:08;;;;;;;2.83;0.77;;;16.70;99.90;;;;;;12331899;28;20542;-79
2022/09/02 07:16:10;;;;;;;1.73;0.60;;;16.90;99.90;;;;;;12336341;28;20055;-79
2022/09/02 07:22:18;;;;;;;5.30;0.80;;;17.00;99.90;;;;;;12310564;28;20506;-79
2022/09/02 07:28:21;;;;;;;2.13;0.88;;;17.20;99.90;;;;;;12312585;28;20116;-79
2022/09/02 07:34:23;;;;;;;2.15;0.80;;;17.40;99.90;;;;;;12337998;28;20046;-79
2022/09/02 07:40:25;;;;;;;3.75;0.95;;;17.50;99.90;;;;;;12321830;28;20046;-80
2022/09/02 07:46:30;;;;;;;2.78;0.98;;;17.80;99.90;;;;;;12329697;28;20134;-79
2022/09/02 07:52:33;;;;;;;1.75;0.70;;;18.00;99.90;;;;;;12339143;28;20414;-79
2022/09/02 07:58:35;;;;;;;2.45;1.00;;;18.10;99.90;;;;;;12338233;28;21313;-79
2022/09/02 08:04:36;;;;;;;1.45;0.60;;;18.30;99.90;;;;;;12309891;28;20113;-79
2022/09/02 08:10:39;;;;;;;2.50;0.80;;;18.50;99.90;;;;;;12342408;28;20074;-79
2022/09/02 08:16:41;;;;;;;2.28;0.90;;;18.70;99.90;;;;;;12336356;28;20051;-79
2022/09/02 08:22:43;;;;;;;2.50;0.75;;;18.90;99.90;;;;;;12334496;28;20461;-80
2022/09/02 08:28:55;;;;;;;3.13;0.80;;;19.20;99.90;;;;;;12351605;28;20053;-79
2022/09/02 08:35:01;;;;;;;4.53;0.80;;;19.30;99.90;;;;;;12348598;28;20073;-79
2022/09/02 08:41:21;;;;;;;1.88;0.85;;;19.50;99.90;;;;;;12344530;28;20495;-79
2022/09/02 08:47:30;;;;;;;1.10;0.60;;;19.60;99.90;;;;;;12345253;28;20043;-79
2022/09/02 08:53:53;;;;;;;9.02;1.42;;;19.80;99.90;;;;;;12346971;28;20534;-79
2022/09/02 08:59:57;;;;;;;3.92;0.90;;;20.00;99.90;;;;;;12327744;28;20111;-79
2022/09/02 09:06:09;;;;;;;2.17;0.80;;;20.10;99.90;;;;;;12344971;28;20043;-80
2022/09/02 09:12:59;;;;;;;2.10;0.90;;;20.20;99.90;;;;;;12321928;28;20162;-79
2022/09/02 09:19:22;;;;;;;3.38;0.90;;;20.50;99.90;;;;;;12338248;28;20043;-79
2022/09/02 09:25:29;;;;;;;6.17;1.00;;;20.70;99.90;;;;;;12338594;28;20105;-79
2022/09/02 09:31:34;;;;;;;1.73;0.80;;;20.90;99.90;;;;;;12341407;28;20066;-79
2022/09/02 09:59:55;;;;;;;2.22;0.80;;;21.70;99.90;;;;;;12335418;28;20070;-80
2022/09/02 10:06:16;;;;;;;3.42;1.10;;;21.80;99.90;;;;;;12340811;28;20046;-80
2022/09/02 10:12:32;;;;;;;1.77;0.70;;;21.90;99.90;;;;;;12319414;28;20129;-80
2022/09/02 10:18:53;;;;;;;3.38;0.98;;;22.20;99.90;;;;;;12337155;28;20051;-79
2022/09/02 10:25:37;;;;;;;3.78;1.17;;;22.10;99.90;;;;;;12337025;28;20104;-79
2022/09/02 10:32:12;;;;;;;4.07;0.90;;;22.30;99.90;;;;;;12308330;28;20507;-80
2022/09/02 10:38:41;;;;;;;2.55;0.80;;;22.30;99.90;;;;;;12333764;28;20043;-79
2022/09/02 10:45:00;;;;;;;2.38;0.80;;;22.70;99.90;;;;;;12333438;28;20101;-79
2022/09/02 10:51:14;;;;;;;1.40;0.80;;;22.80;99.90;;;;;;12326759;28;20046;-80
2022/09/02 10:57:26;;;;;;;5.10;1.20;;;22.70;99.90;;;;;;12338821;28;20197;-80
2022/09/02 11:03:34;;;;;;;4.27;0.97;;;22.20;99.90;;;;;;12319470;28;20043;-79
2022/09/02 11:09:44;;;;;;;2.97;1.00;;;22.30;99.90;;;;;;12317384;28;20048;-80
2022/09/02 11:16:00;;;;;;;2.92;0.68;;;22.00;99.90;;;;;;12327854;28;20514;-79
2022/09/02 11:22:46;;;;;;;2.17;0.90;;;22.20;99.90;;;;;;12322348;28;20046;-79
2022/09/02 11:28:58;;;;;;;3.38;0.98;;;22.80;99.90;;;;;;12280059;28;20054;-80
2022/09/02 11:35:05;;;;;;;1.80;0.88;;;22.30;99.90;;;;;;12308512;28;20134;-79
2022/09/02 11:41:52;;;;;;;7.45;1.02;;;22.00;99.90;;;;;;12323385;28;20050;-79
2022/09/02 11:48:07;;;;;;;2.08;1.02;;;22.10;99.90;;;;;;12082111;29;20082;-80
2022/09/02 11:54:13;;;;;;;2.72;0.88;;;21.90;99.90;;;;;;12326643;28;20046;-80
2022/09/02 12:00:30;;;;;;;2.45;1.23;;;21.80;99.90;;;;;;12332337;28;20117;-80
2022/09/02 12:06:32;;;;;;;2.60;1.00;;;21.90;99.90;;;;;;12304992;28;20125;-80
2022/09/02 12:12:37;;;;;;;3.55;0.98;;;23.00;99.90;;;;;;12331207;28;20046;-79
2022/09/02 12:18:42;;;;;;;2.00;0.85;;;23.90;99.90;;;;;;12327151;28;20047;-80
2022/09/02 12:24:52;;;;;;;4.75;0.90;;;24.50;99.90;;;;;;12332192;28;20081;-80
2022/09/02 12:31:08;;;;;;;4.50;0.93;;;24.40;99.90;;;;;;12333633;28;20454;-80
2022/09/02 12:37:48;;;;;;;3.92;1.02;;;24.00;99.90;;;;;;12357420;28;20046;-79
2022/09/02 12:44:01;;;;;;;5.18;0.88;;;24.30;99.90;;;;;;12342675;28;20038;-79
2022/09/02 12:50:10;;;;;;;3.38;0.95;;;24.50;99.90;;;;;;12336612;28;20083;-80
2022/09/02 12:56:22;;;;;;;1.38;0.80;;;23.90;99.90;;;;;;12332914;28;20419;-80
2022/09/02 13:02:43;;;;;;;2.97;1.23;;;23.20;99.90;;;;;;12343714;28;20070;-79
2022/09/02 13:09:14;;;;;;;5.18;1.00;;;22.80;99.90;;;;;;12368007;28;20051;-81
2022/09/02 13:15:45;;;;;;;2.65;0.80;;;22.40;99.90;;;;;;12385134;28;20114;-80
2022/09/02 13:22:14;;;;;;;3.05;1.05;;;22.30;99.90;;;;;;12383965;28;20413;-81
2022/09/02 13:28:19;;;;;;;1.52;0.70;;;22.30;99.90;;;;;;12343460;28;20059;-79
2022/09/02 13:34:21;;;;;;;2.40;0.90;;;22.80;99.90;;;;;;12342930;28;20039;-80
2022/09/02 13:40:34;;;;;;;2.20;0.70;;;22.80;99.90;;;;;;12321627;28;20174;-80
2022/09/02 13:47:03;;;;;;;2.92;0.93;;;22.50;99.90;;;;;;12343941;28;20089;-79
2022/09/02 13:53:07;;;;;;;3.03;0.95;;;22.50;99.90;;;;;;12329513;28;20523;-80
2022/09/02 13:59:37;;;;;;;4.53;0.90;;;22.40;99.90;;;;;;12323386;28;20605;-80
2022/09/02 14:05:42;;;;;;;5.50;1.10;;;22.30;99.90;;;;;;12322438;28;20200;-79
2022/09/02 14:11:48;;;;;;;2.88;0.90;;;22.40;99.90;;;;;;12316990;28;20996;-79
2022/09/02 14:18:26;;;;;;;2.20;0.85;;;22.30;99.90;;;;;;12337177;28;20145;-80
2022/09/02 14:24:36;;;;;;;2.08;0.93;;;22.70;99.90;;;;;;12240294;28;20051;-80
2022/09/02 14:30:40;;;;;;;3.00;1.02;;;22.60;99.90;;;;;;12331768;28;20077;-79
2022/09/02 14:36:41;;;;;;;4.57;0.80;;;22.70;99.90;;;;;;12343368;28;20116;-80
2022/09/02 14:42:52;;;;;;;4.35;1.02;;;22.50;99.90;;;;;;12350120;28;20045;-80
2022/09/02 14:49:04;;;;;;;1.65;0.60;;;22.30;99.90;;;;;;12334750;28;20388;-80
2022/09/02 14:55:15;;;;;;;5.88;1.00;;;22.40;99.90;;;;;;12348365;28;20467;-80
2022/09/02 15:01:17;;;;;;;3.30;0.90;;;22.30;99.90;;;;;;12328695;28;20181;-79
2022/09/02 15:07:19;;;;;;;3.28;0.73;;;22.20;99.90;;;;;;12340119;28;20051;-80
2022/09/02 15:13:32;;;;;;;3.78;0.80;;;22.30;99.90;;;;;;12329139;28;20035;-80
2022/09/02 15:19:34;;;;;;;2.15;0.90;;;22.10;99.90;;;;;;12341934;28;20448;-79
2022/09/02 15:25:36;;;;;;;3.90;0.90;;;22.10;99.90;;;;;;12332948;28;20149;-80
2022/09/02 15:31:38;;;;;;;1.48;1.00;;;22.10;99.90;;;;;;12334462;28;20133;-80
2022/09/02 15:37:41;;;;;;;4.72;0.85;;;22.00;99.90;;;;;;12354510;28;20133;-80
2022/09/02 15:43:44;;;;;;;2.75;1.00;;;21.90;99.90;;;;;;12338170;28;20263;-80
2022/09/02 15:49:46;;;;;;;4.47;0.98;;;21.90;99.90;;;;;;12351143;28;20047;-79
2022/09/02 15:55:48;;;;;;;3.22;1.10;;;21.90;99.90;;;;;;12338053;28;20046;-80
2022/09/02 16:01:55;;;;;;;3.58;1.10;;;21.80;99.90;;;;;;12333027;28;20173;-79
2022/09/02 16:07:57;;;;;;;2.92;0.80;;;21.80;99.90;;;;;;12338279;28;20057;-80
2022/09/02 16:13:59;;;;;;;3.45;0.98;;;21.80;99.90;;;;;;12335776;28;20079;-80
2022/09/02 16:20:01;;;;;;;2.70;0.68;;;21.70;99.90;;;;;;12332277;28;20086;-80
2022/09/02 16:26:28;;;;;;;1.80;0.70;;;21.70;99.90;;;;;;12340991;28;20101;-80
2022/09/02 16:32:30;;;;;;;3.47;0.80;;;21.70;99.90;;;;;;12325708;28;20047;-80
2022/09/02 16:38:33;;;;;;;1.90;0.80;;;21.80;99.90;;;;;;12351722;28;20453;-80
2022/09/02 16:44:35;;;;;;;3.70;0.80;;;21.60;99.90;;;;;;12343392;28;20177;-80
2022/09/02 16:50:36;;;;;;;2.25;0.60;;;21.60;99.90;;;;;;12338582;28;20058;-80
2022/09/02 16:56:39;;;;;;;3.55;0.90;;;21.40;99.90;;;;;;12332297;28;20050;-80
2022/09/02 17:02:41;;;;;;;2.83;0.70;;;21.30;99.90;;;;;;12317569;28;20046;-80
2022/09/02 17:08:43;;;;;;;7.95;0.80;;;21.20;99.90;;;;;;12331869;28;20101;-80
2022/09/02 17:14:45;;;;;;;4.18;0.90;;;21.20;99.90;;;;;;12324454;28;20169;-80
2022/09/02 17:20:47;;;;;;;1.50;0.70;;;21.10;99.90;;;;;;12332640;28;20054;-80
2022/09/02 17:26:54;;;;;;;4.53;0.80;;;21.00;99.90;;;;;;12337025;28;20406;-80
2022/09/02 17:32:58;;;;;;;2.78;1.00;;;21.00;99.90;;;;;;12321513;28;20554;-79
2022/09/02 17:39:04;;;;;;;1.43;0.83;;;20.90;99.90;;;;;;12340673;28;20130;-80
2022/09/02 17:45:06;;;;;;;6.07;1.00;;;20.90;99.90;;;;;;12337102;28;20286;-80
2022/09/02 17:51:08;;;;;;;3.15;1.00;;;20.80;99.90;;;;;;12330647;28;20051;-80
2022/09/02 17:57:33;;;;;;;3.00;0.80;;;20.70;99.90;;;;;;12322237;28;20054;-80
2022/09/02 18:03:49;;;;;;;2.08;0.80;;;20.60;99.90;;;;;;12335630;28;20165;-80
2022/09/02 18:09:51;;;;;;;2.40;0.75;;;20.60;99.90;;;;;;12321644;28;20051;-80
2022/09/02 18:16:33;;;;;;;4.18;0.90;;;20.50;99.90;;;;;;12319171;28;20043;-80
2022/09/02 18:23:02;;;;;;;1.52;0.70;;;20.50;99.90;;;;;;12341351;28;20505;-80
2022/09/02 18:29:26;;;;;;;3.63;0.90;;;20.50;99.90;;;;;;12318373;28;20081;-80
2022/09/02 18:35:27;;;;;;;;;;;20.40;99.90;;;;;;12326003;28;20461;-79
2022/09/02 18:42:19;;;;;;;2.55;0.60;;;20.30;99.90;;;;;;12340091;28;19926;-80
2022/09/02 18:48:26;;;;;;;3.67;0.80;;;20.20;99.90;;;;;;12244424;28;20081;-80
2022/09/02 18:54:53;;;;;;;2.58;0.70;;;20.10;99.90;;;;;;12330876;28;20126;-79
2022/09/02 19:00:59;;;;;;;6.82;0.65;;;20.00;99.90;;;;;;12335599;28;20134;-80
2022/09/02 19:13:46;;;;;;;6.32;1.00;;;19.90;99.90;;;;;;12315774;28;20073;-80
2022/09/02 19:19:47;;;;;;;1.70;0.60;;;19.80;99.90;;;;;;12316414;28;20515;-79
2022/09/02 19:25:49;;;;;;;1.80;0.60;;;19.70;99.90;;;;;;12336404;28;20142;-80
2022/09/02 19:31:53;;;;;;;3.75;0.93;;;19.60;99.90;;;;;;12339770;28;20054;-80
2022/09/02 19:37:55;;;;;;;;;;;19.60;99.90;;;;;;12319887;28;20114;-80
2022/09/02 19:43:58;;;;;;;1.27;0.65;;;19.50;99.90;;;;;;12340157;28;19957;-80
2022/09/02 19:50:01;;;;;;;7.25;1.08;;;19.40;99.90;;;;;;12332596;28;20517;-79
2022/09/02 19:56:05;;;;;;;5.27;0.80;;;19.40;99.90;;;;;;12320332;28;20082;-80
2022/09/02 20:02:07;;;;;;;1.52;0.70;;;19.20;99.90;;;;;;12320721;28;20043;-80
2022/09/02 20:08:09;;;;;;;3.63;0.93;;;19.00;99.90;;;;;;12326935;28;20178;-80
2022/09/02 20:14:10;;;;;;;2.65;0.77;;;18.90;99.90;;;;;;12323926;28;20092;-80
2022/09/02 20:20:20;;;;;;;4.63;0.50;;;18.90;99.90;;;;;;12332032;28;21170;-80
2022/09/02 20:26:25;;;;;;;2.63;0.90;;;18.70;99.90;;;;;;12318318;28;20439;-79
2022/09/02 20:32:30;;;;;;;3.17;0.57;;;18.70;99.90;;;;;;12337408;28;20254;-79
2022/09/02 20:38:55;;;;;;;4.28;0.68;;;18.60;99.90;;;;;;12341278;28;20043;-80
2022/09/02 20:45:26;;;;;;;2.67;0.70;;;18.50;99.90;;;;;;12342016;28;20047;-80
2022/09/02 20:51:33;;;;;;;3.65;1.00;;;18.50;99.90;;;;;;12332452;28;20514;-80
2022/09/02 20:57:44;;;;;;;2.35;0.60;;;18.50;99.90;;;;;;12342951;28;20141;-79
2022/09/02 21:04:18;;;;;;;1.83;0.63;;;18.20;99.90;;;;;;12340243;28;20039;-80
2022/09/02 21:10:28;;;;;;;;;;;18.20;99.90;;;;;;12279730;28;20047;-80
2022/09/02 21:16:57;;;;;;;0.75;0.40;;;18.10;99.90;;;;;;12344145;28;20374;-80
2022/09/02 21:23:04;;;;;;;11.20;0.90;;;18.10;99.90;;;;;;12341162;28;20086;-81
2022/09/02 21:29:13;;;;;;;3.45;0.80;;;18.10;99.90;;;;;;12335663;28;20449;-79
2022/09/02 21:35:22;;;;;;;2.03;0.60;;;18.00;99.90;;;;;;12342336;28;20047;-80
2022/09/02 21:41:34;;;;;;;2.88;0.65;;;17.90;99.90;;;;;;12325842;28;20118;-79
2022/09/02 21:48:11;;;;;;;4.13;0.70;;;17.90;99.90;;;;;;12326984;28;20518;-80
2022/09/02 21:54:31;;;;;;;1.73;0.50;;;17.70;99.90;;;;;;12336950;28;20121;-79
2022/09/02 22:00:34;;;;;;;4.13;0.60;;;17.60;99.90;;;;;;12334535;28;20503;-79
2022/09/02 22:06:45;;;;;;;0.95;0.50;;;17.40;99.90;;;;;;12341873;28;20146;-79
2022/09/02 22:12:50;;;;;;;4.18;0.55;;;17.40;99.90;;;;;;12326908;28;20120;-79
2022/09/02 22:19:02;;;;;;;2.17;0.50;;;17.40;99.90;;;;;;12342754;28;20384;-79
2022/09/02 22:25:07;;;;;;;1.73;0.63;;;17.30;99.90;;;;;;12340791;28;20051;-79
2022/09/02 22:31:14;;;;;;;1.15;0.45;;;17.30;99.90;;;;;;12340936;28;20133;-79
2022/09/02 22:37:23;;;;;;;1.00;0.47;;;17.20;99.90;;;;;;12321899;28;20053;-79
2022/09/02 22:43:33;;;;;;;1.85;0.50;;;17.30;99.90;;;;;;12339906;28;20104;-79
2022/09/02 22:56:49;;;;;;;1.17;0.47;;;17.20;99.90;;;;;;12338900;28;20043;-79
2022/09/02 23:03:12;;;;;;;3.55;0.50;;;17.20;99.90;;;;;;12327837;28;20097;-79
2022/09/02 23:09:17;;;;;;;3.35;0.60;;;17.30;99.90;;;;;;12334723;28;20046;-79
2022/09/02 23:15:35;;;;;;;5.72;0.47;;;17.30;99.90;;;;;;12325111;28;20039;-79
2022/09/02 23:21:53;;;;;;;2.65;0.45;;;17.40;99.90;;;;;;12320742;28;20507;-79
2022/09/02 23:28:14;;;;;;;3.63;0.50;;;17.40;99.90;;;;;;12333533;28;20137;-79
2022/09/02 23:34:33;;;;;;;5.30;0.60;;;17.30;99.90;;;;;;12314842;28;20461;-79
2022/09/02 23:40:44;;;;;;;1.30;0.38;;;17.20;99.90;;;;;;12343659;28;20230;-79
2022/09/02 23:47:00;;;;;;;1.13;0.30;;;17.20;99.90;;;;;;12349957;28;20110;-79
2022/09/02 23:53:17;;;;;;;2.75;0.55;;;17.20;99.90;;;;;;12347978;28;20047;-79
2022/09/02 23:59:58;;;;;;;1.25;0.47;;;17.20;99.90;;;;;;12346853;28;20061;-79
